Terminal Aerodrome Forecast
Issued by NWS

Home | Current Version | Previous Version | Graphics & Text | Print | Product List | Glossary On
Versions: 1 2 3 4 5 6 7 8 9 10 11 12 13 14 15 16 17 18 19 20
634
FTUS43 KABR 212336
TAFATY
TAF
KATY 212336Z 2200/2224 23007KT P6SM SKC
     FM221600 28007KT P6SM SCT150
     FM221900 30012G19KT P6SM SCT150
     FM222100 30015G23KT P6SM BKN050
     FM222300 32015G23KT P6SM BKN030=

USA.gov is the U.S. government's official web portal to all federal, state and local government web resources and services.